sensor_id;sensor_type;location;lat;lon;timestamp;P1;durP1;ratioP1;P2;durP2;ratioP2
13927;SDS011;7036;50.834;4.718;2023-04-21T00:00:00;3.55;;;2.92;;
13927;SDS011;7036;50.834;4.718;2023-04-21T00:02:27;3.38;;;3.08;;
13927;SDS011;7036;50.834;4.718;2023-04-21T00:04:55;3.80;;;3.42;;
13927;SDS011;7036;50.834;4.718;2023-04-21T00:07:22;4.18;;;3.67;;
13927;SDS011;7036;50.834;4.718;2023-04-21T00:09:50;4.07;;;3.45;;
13927;SDS011;7036;50.834;4.718;2023-04-21T00:12:18;3.78;;;3.22;;
13927;SDS011;7036;50.834;4.718;2023-04-21T00:14:45;3.17;;;2.85;;
13927;SDS011;7036;50.834;4.718;2023-04-21T00:17:12;3.83;;;3.42;;
13927;SDS011;7036;50.834;4.718;2023-04-21T00:19:39;4.63;;;3.13;;
13927;SDS011;7036;50.834;4.718;2023-04-21T00:22:06;3.92;;;3.17;;
13927;SDS011;7036;50.834;4.718;2023-04-21T00:24:34;5.03;;;3.63;;
13927;SDS011;7036;50.834;4.718;2023-04-21T00:27:02;3.70;;;3.20;;
13927;SDS011;7036;50.834;4.718;2023-04-21T00:29:30;6.68;;;3.28;;
13927;SDS011;7036;50.834;4.718;2023-04-21T00:31:58;4.30;;;3.55;;
13927;SDS011;7036;50.834;4.718;2023-04-21T00:34:25;4.47;;;3.40;;
13927;SDS011;7036;50.834;4.718;2023-04-21T00:36:54;3.47;;;3.17;;
13927;SDS011;7036;50.834;4.718;2023-04-21T00:39:22;4.00;;;3.13;;
13927;SDS011;7036;50.834;4.718;2023-04-21T00:41:50;3.80;;;3.50;;
13927;SDS011;7036;50.834;4.718;2023-04-21T00:44:18;4.07;;;3.53;;
13927;SDS011;7036;50.834;4.718;2023-04-21T00:46:45;3.65;;;3.30;;
13927;SDS011;7036;50.834;4.718;2023-04-21T00:49:12;4.30;;;3.90;;
13927;SDS011;7036;50.834;4.718;2023-04-21T00:51:40;4.47;;;4.07;;
13927;SDS011;7036;50.834;4.718;2023-04-21T00:54:08;4.90;;;4.43;;
13927;SDS011;7036;50.834;4.718;2023-04-21T00:56:36;3.63;;;3.33;;
13927;SDS011;7036;50.834;4.718;2023-04-21T00:59:05;4.43;;;4.10;;
13927;SDS011;7036;50.834;4.718;2023-04-21T01:01:33;4.00;;;3.60;;
13927;SDS011;7036;50.834;4.718;2023-04-21T01:04:00;4.03;;;3.63;;
13927;SDS011;7036;50.834;4.718;2023-04-21T01:06:29;4.13;;;3.83;;
13927;SDS011;7036;50.834;4.718;2023-04-21T01:08:59;3.85;;;3.53;;
13927;SDS011;7036;50.834;4.718;2023-04-21T01:11:26;4.80;;;4.30;;
13927;SDS011;7036;50.834;4.718;2023-04-21T01:13:53;4.38;;;3.92;;
13927;SDS011;7036;50.834;4.718;2023-04-21T01:16:21;4.45;;;4.00;;
13927;SDS011;7036;50.834;4.718;2023-04-21T01:18:49;4.45;;;4.00;;
13927;SDS011;7036;50.834;4.718;2023-04-21T01:21:17;4.05;;;3.75;;
13927;SDS011;7036;50.834;4.718;2023-04-21T01:23:45;4.72;;;4.32;;
13927;SDS011;7036;50.834;4.718;2023-04-21T01:26:13;4.70;;;4.30;;
13927;SDS011;7036;50.834;4.718;2023-04-21T01:28:41;4.50;;;4.10;;
13927;SDS011;7036;50.834;4.718;2023-04-21T01:31:10;4.40;;;4.00;;
13927;SDS011;7036;50.834;4.718;2023-04-21T01:33:38;5.20;;;4.80;;
13927;SDS011;7036;50.834;4.718;2023-04-21T01:36:06;4.68;;;4.28;;
13927;SDS011;7036;50.834;4.718;2023-04-21T01:38:36;4.40;;;4.00;;
13927;SDS011;7036;50.834;4.718;2023-04-21T01:41:01;4.43;;;4.03;;
13927;SDS011;7036;50.834;4.718;2023-04-21T01:43:29;4.47;;;4.07;;
13927;SDS011;7036;50.834;4.718;2023-04-21T01:45:56;5.25;;;4.75;;
13927;SDS011;7036;50.834;4.718;2023-04-21T01:48:23;5.10;;;4.60;;
13927;SDS011;7036;50.834;4.718;2023-04-21T01:50:50;5.05;;;4.47;;
13927;SDS011;7036;50.834;4.718;2023-04-21T01:53:18;4.72;;;4.32;;
13927;SDS011;7036;50.834;4.718;2023-04-21T01:55:46;5.55;;;4.72;;
13927;SDS011;7036;50.834;4.718;2023-04-21T01:58:14;4.60;;;4.28;;
13927;SDS011;7036;50.834;4.718;2023-04-21T02:00:41;4.30;;;4.00;;
13927;SDS011;7036;50.834;4.718;2023-04-21T02:03:08;4.40;;;4.00;;
13927;SDS011;7036;50.834;4.718;2023-04-21T02:05:35;4.75;;;4.35;;
13927;SDS011;7036;50.834;4.718;2023-04-21T02:08:02;5.20;;;4.78;;
13927;SDS011;7036;50.834;4.718;2023-04-21T02:10:30;5.05;;;4.65;;
13927;SDS011;7036;50.834;4.718;2023-04-21T02:12:58;5.07;;;4.55;;
13927;SDS011;7036;50.834;4.718;2023-04-21T02:15:26;4.90;;;4.43;;
13927;SDS011;7036;50.834;4.718;2023-04-21T02:17:53;5.28;;;4.78;;
13927;SDS011;7036;50.834;4.718;2023-04-21T02:20:22;5.63;;;4.82;;
13927;SDS011;7036;50.834;4.718;2023-04-21T02:22:49;4.88;;;4.47;;
13927;SDS011;7036;50.834;4.718;2023-04-21T02:25:17;5.18;;;4.63;;
13927;SDS011;7036;50.834;4.718;2023-04-21T02:27:44;5.47;;;4.97;;
13927;SDS011;7036;50.834;4.718;2023-04-21T02:30:11;5.40;;;4.88;;
13927;SDS011;7036;50.834;4.718;2023-04-21T02:32:39;5.43;;;5.00;;
13927;SDS011;7036;50.834;4.718;2023-04-21T02:35:06;5.55;;;5.05;;
13927;SDS011;7036;50.834;4.718;2023-04-21T02:37:34;5.45;;;5.03;;
13927;SDS011;7036;50.834;4.718;2023-04-21T02:40:02;6.15;;;5.55;;
13927;SDS011;7036;50.834;4.718;2023-04-21T02:42:31;5.32;;;4.88;;
13927;SDS011;7036;50.834;4.718;2023-04-21T02:44:58;5.38;;;4.93;;
13927;SDS011;7036;50.834;4.718;2023-04-21T02:47:26;5.68;;;5.10;;
13927;SDS011;7036;50.834;4.718;2023-04-21T02:49:54;5.47;;;4.97;;
13927;SDS011;7036;50.834;4.718;2023-04-21T02:52:21;5.57;;;5.07;;
13927;SDS011;7036;50.834;4.718;2023-04-21T02:54:48;6.28;;;5.78;;
13927;SDS011;7036;50.834;4.718;2023-04-21T02:57:16;6.05;;;5.45;;
13927;SDS011;7036;50.834;4.718;2023-04-21T02:59:44;5.70;;;5.30;;
13927;SDS011;7036;50.834;4.718;2023-04-21T03:02:11;6.30;;;5.65;;
13927;SDS011;7036;50.834;4.718;2023-04-21T03:04:39;4.85;;;4.45;;
13927;SDS011;7036;50.834;4.718;2023-04-21T03:07:12;5.50;;;4.95;;
13927;SDS011;7036;50.834;4.718;2023-04-21T03:09:40;6.05;;;5.45;;
13927;SDS011;7036;50.834;4.718;2023-04-21T03:12:08;5.35;;;4.85;;
13927;SDS011;7036;50.834;4.718;2023-04-21T03:14:35;6.18;;;5.57;;
13927;SDS011;7036;50.834;4.718;2023-04-21T03:17:03;6.43;;;5.82;;
13927;SDS011;7036;50.834;4.718;2023-04-21T03:19:30;6.05;;;5.55;;
13927;SDS011;7036;50.834;4.718;2023-04-21T03:21:58;5.78;;;5.28;;
13927;SDS011;7036;50.834;4.718;2023-04-21T03:24:26;6.15;;;5.65;;
13927;SDS011;7036;50.834;4.718;2023-04-21T03:26:55;6.43;;;5.82;;
13927;SDS011;7036;50.834;4.718;2023-04-21T03:29:23;6.47;;;5.88;;
13927;SDS011;7036;50.834;4.718;2023-04-21T03:31:50;6.28;;;5.70;;
13927;SDS011;7036;50.834;4.718;2023-04-21T03:34:18;6.03;;;5.53;;
13927;SDS011;7036;50.834;4.718;2023-04-21T03:36:46;6.43;;;5.90;;
13927;SDS011;7036;50.834;4.718;2023-04-21T03:39:13;6.68;;;6.05;;
13927;SDS011;7036;50.834;4.718;2023-04-21T03:41:41;6.10;;;5.60;;
13927;SDS011;7036;50.834;4.718;2023-04-21T03:44:09;6.53;;;5.93;;
13927;SDS011;7036;50.834;4.718;2023-04-21T03:46:36;6.70;;;6.10;;
13927;SDS011;7036;50.834;4.718;2023-04-21T03:49:05;6.47;;;5.85;;
13927;SDS011;7036;50.834;4.718;2023-04-21T03:51:33;6.60;;;6.10;;
13927;SDS011;7036;50.834;4.718;2023-04-21T03:54:00;6.88;;;6.28;;
13927;SDS011;7036;50.834;4.718;2023-04-21T03:56:28;6.68;;;6.07;;
13927;SDS011;7036;50.834;4.718;2023-04-21T03:58:55;6.97;;;6.38;;
13927;SDS011;7036;50.834;4.718;2023-04-21T04:01:22;6.60;;;6.10;;
13927;SDS011;7036;50.834;4.718;2023-04-21T04:03:50;6.60;;;6.00;;
13927;SDS011;7036;50.834;4.718;2023-04-21T04:06:17;7.05;;;6.45;;
13927;SDS011;7036;50.834;4.718;2023-04-21T04:08:45;6.63;;;6.07;;
13927;SDS011;7036;50.834;4.718;2023-04-21T04:11:13;7.32;;;6.63;;
13927;SDS011;7036;50.834;4.718;2023-04-21T04:13:40;7.15;;;6.55;;
13927;SDS011;7036;50.834;4.718;2023-04-21T04:16:08;6.70;;;6.10;;
13927;SDS011;7036;50.834;4.718;2023-04-21T04:18:35;6.95;;;6.43;;
13927;SDS011;7036;50.834;4.718;2023-04-21T04:21:06;7.43;;;6.72;;
13927;SDS011;7036;50.834;4.718;2023-04-21T04:23:34;6.97;;;6.38;;
13927;SDS011;7036;50.834;4.718;2023-04-21T04:26:01;7.10;;;6.50;;
13927;SDS011;7036;50.834;4.718;2023-04-21T04:28:30;7.10;;;6.43;;
13927;SDS011;7036;50.834;4.718;2023-04-21T04:30:57;6.78;;;6.18;;
13927;SDS011;7036;50.834;4.718;2023-04-21T04:33:25;6.82;;;6.22;;
13927;SDS011;7036;50.834;4.718;2023-04-21T04:35:52;7.60;;;6.40;;
13927;SDS011;7036;50.834;4.718;2023-04-21T04:38:20;6.93;;;6.32;;
13927;SDS011;7036;50.834;4.718;2023-04-21T04:40:53;7.82;;;7.05;;
13927;SDS011;7036;50.834;4.718;2023-04-21T04:43:20;6.78;;;6.18;;
13927;SDS011;7036;50.834;4.718;2023-04-21T04:45:47;7.78;;;7.05;;
13927;SDS011;7036;50.834;4.718;2023-04-21T04:48:15;7.35;;;6.70;;
13927;SDS011;7036;50.834;4.718;2023-04-21T04:50:42;7.50;;;6.80;;
13927;SDS011;7036;50.834;4.718;2023-04-21T04:53:10;7.45;;;6.75;;
13927;SDS011;7036;50.834;4.718;2023-04-21T04:55:38;7.57;;;6.78;;
13927;SDS011;7036;50.834;4.718;2023-04-21T04:58:06;7.00;;;6.47;;
13927;SDS011;7036;50.834;4.718;2023-04-21T05:00:33;7.15;;;6.45;;
13927;SDS011;7036;50.834;4.718;2023-04-21T05:03:00;7.57;;;6.88;;
13927;SDS011;7036;50.834;4.718;2023-04-21T05:05:28;8.57;;;7.45;;
13927;SDS011;7036;50.834;4.718;2023-04-21T05:07:55;7.13;;;6.50;;
13927;SDS011;7036;50.834;4.718;2023-04-21T05:10:23;7.25;;;6.55;;
13927;SDS011;7036;50.834;4.718;2023-04-21T05:12:50;8.07;;;7.38;;
13927;SDS011;7036;50.834;4.718;2023-04-21T05:15:19;7.45;;;6.75;;
13927;SDS011;7036;50.834;4.718;2023-04-21T05:17:47;7.85;;;7.15;;
13927;SDS011;7036;50.834;4.718;2023-04-21T05:20:14;7.30;;;6.60;;
13927;SDS011;7036;50.834;4.718;2023-04-21T05:22:42;7.70;;;7.00;;
13927;SDS011;7036;50.834;4.718;2023-04-21T05:25:10;7.95;;;7.20;;
13927;SDS011;7036;50.834;4.718;2023-04-21T05:27:40;7.68;;;6.85;;
13927;SDS011;7036;50.834;4.718;2023-04-21T05:30:07;6.85;;;6.25;;
13927;SDS011;7036;50.834;4.718;2023-04-21T05:32:34;6.97;;;6.38;;
13927;SDS011;7036;50.834;4.718;2023-04-21T05:35:01;7.75;;;7.05;;
13927;SDS011;7036;50.834;4.718;2023-04-21T05:37:29;8.10;;;7.43;;
13927;SDS011;7036;50.834;4.718;2023-04-21T05:39:56;7.35;;;6.65;;
13927;SDS011;7036;50.834;4.718;2023-04-21T05:42:24;7.60;;;6.90;;
13927;SDS011;7036;50.834;4.718;2023-04-21T05:44:51;8.68;;;7.95;;
13927;SDS011;7036;50.834;4.718;2023-04-21T05:47:19;7.88;;;7.18;;
13927;SDS011;7036;50.834;4.718;2023-04-21T05:49:51;9.07;;;8.15;;
13927;SDS011;7036;50.834;4.718;2023-04-21T05:52:18;8.60;;;7.80;;
13927;SDS011;7036;50.834;4.718;2023-04-21T05:54:45;8.35;;;7.55;;
13927;SDS011;7036;50.834;4.718;2023-04-21T05:57:12;8.25;;;7.45;;
13927;SDS011;7036;50.834;4.718;2023-04-21T05:59:40;8.32;;;7.40;;
13927;SDS011;7036;50.834;4.718;2023-04-21T06:02:08;8.27;;;7.50;;
13927;SDS011;7036;50.834;4.718;2023-04-21T06:04:36;7.93;;;7.13;;
13927;SDS011;7036;50.834;4.718;2023-04-21T06:07:06;8.25;;;7.45;;
13927;SDS011;7036;50.834;4.718;2023-04-21T06:09:34;8.05;;;7.22;;
13927;SDS011;7036;50.834;4.718;2023-04-21T06:12:02;8.90;;;7.78;;
13927;SDS011;7036;50.834;4.718;2023-04-21T06:14:30;6.93;;;6.32;;
13927;SDS011;7036;50.834;4.718;2023-04-21T06:16:58;7.22;;;6.53;;
13927;SDS011;7036;50.834;4.718;2023-04-21T06:19:26;7.97;;;7.28;;
13927;SDS011;7036;50.834;4.718;2023-04-21T06:21:55;7.82;;;7.13;;
13927;SDS011;7036;50.834;4.718;2023-04-21T06:24:21;7.80;;;7.10;;
13927;SDS011;7036;50.834;4.718;2023-04-21T06:26:51;8.48;;;7.20;;
13927;SDS011;7036;50.834;4.718;2023-04-21T06:29:19;9.05;;;7.85;;
13927;SDS011;7036;50.834;4.718;2023-04-21T06:31:47;7.72;;;6.90;;
13927;SDS011;7036;50.834;4.718;2023-04-21T06:34:15;7.43;;;6.72;;
13927;SDS011;7036;50.834;4.718;2023-04-21T06:36:42;8.57;;;7.10;;
13927;SDS011;7036;50.834;4.718;2023-04-21T06:39:10;7.57;;;6.85;;
13927;SDS011;7036;50.834;4.718;2023-04-21T06:41:38;8.95;;;7.88;;
13927;SDS011;7036;50.834;4.718;2023-04-21T06:44:06;8.32;;;7.55;;
13927;SDS011;7036;50.834;4.718;2023-04-21T06:46:34;7.85;;;7.15;;
13927;SDS011;7036;50.834;4.718;2023-04-21T06:49:02;8.68;;;6.93;;
13927;SDS011;7036;50.834;4.718;2023-04-21T06:51:30;8.52;;;7.50;;
13927;SDS011;7036;50.834;4.718;2023-04-21T06:53:58;11.88;;;7.40;;
13927;SDS011;7036;50.834;4.718;2023-04-21T06:56:26;8.50;;;7.53;;
13927;SDS011;7036;50.834;4.718;2023-04-21T06:58:55;10.48;;;7.85;;
13927;SDS011;7036;50.834;4.718;2023-04-21T07:01:21;9.13;;;8.07;;
13927;SDS011;7036;50.834;4.718;2023-04-21T07:03:51;10.67;;;8.23;;
13927;SDS011;7036;50.834;4.718;2023-04-21T07:06:18;14.75;;;8.60;;
13927;SDS011;7036;50.834;4.718;2023-04-21T07:08:46;13.20;;;9.43;;
13927;SDS011;7036;50.834;4.718;2023-04-21T07:11:15;9.52;;;7.75;;
13927;SDS011;7036;50.834;4.718;2023-04-21T07:13:42;10.17;;;8.90;;
13927;SDS011;7036;50.834;4.718;2023-04-21T07:16:09;11.77;;;8.38;;
13927;SDS011;7036;50.834;4.718;2023-04-21T07:18:38;13.43;;;8.05;;
13927;SDS011;7036;50.834;4.718;2023-04-21T07:21:03;10.55;;;8.15;;
13927;SDS011;7036;50.834;4.718;2023-04-21T07:23:30;15.20;;;10.52;;
13927;SDS011;7036;50.834;4.718;2023-04-21T07:25:58;14.63;;;9.32;;
13927;SDS011;7036;50.834;4.718;2023-04-21T07:28:26;20.92;;;11.40;;
13927;SDS011;7036;50.834;4.718;2023-04-21T07:30:53;25.75;;;11.50;;
13927;SDS011;7036;50.834;4.718;2023-04-21T07:33:20;36.63;;;11.73;;
13927;SDS011;7036;50.834;4.718;2023-04-21T07:35:47;23.35;;;12.10;;
13927;SDS011;7036;50.834;4.718;2023-04-21T07:38:15;24.05;;;11.57;;
13927;SDS011;7036;50.834;4.718;2023-04-21T07:40:42;33.10;;;11.00;;
13927;SDS011;7036;50.834;4.718;2023-04-21T07:43:09;29.98;;;11.73;;
13927;SDS011;7036;50.834;4.718;2023-04-21T07:45:37;18.95;;;10.88;;
13927;SDS011;7036;50.834;4.718;2023-04-21T07:48:04;20.13;;;10.80;;
13927;SDS011;7036;50.834;4.718;2023-04-21T07:50:32;18.20;;;10.52;;
13927;SDS011;7036;50.834;4.718;2023-04-21T07:52:59;21.85;;;11.23;;
13927;SDS011;7036;50.834;4.718;2023-04-21T07:55:27;23.58;;;10.90;;
13927;SDS011;7036;50.834;4.718;2023-04-21T07:57:53;19.08;;;9.90;;
13927;SDS011;7036;50.834;4.718;2023-04-21T08:00:21;18.10;;;10.27;;
13927;SDS011;7036;50.834;4.718;2023-04-21T08:02:48;22.52;;;10.73;;
13927;SDS011;7036;50.834;4.718;2023-04-21T08:05:15;30.67;;;12.00;;
13927;SDS011;7036;50.834;4.718;2023-04-21T08:07:42;26.63;;;10.27;;
13927;SDS011;7036;50.834;4.718;2023-04-21T08:10:10;20.13;;;10.40;;
13927;SDS011;7036;50.834;4.718;2023-04-21T08:12:37;28.13;;;10.98;;
13927;SDS011;7036;50.834;4.718;2023-04-21T08:15:04;16.20;;;10.38;;
13927;SDS011;7036;50.834;4.718;2023-04-21T08:17:33;30.73;;;11.15;;
13927;SDS011;7036;50.834;4.718;2023-04-21T08:20:00;24.70;;;10.47;;
13927;SDS011;7036;50.834;4.718;2023-04-21T08:22:26;23.30;;;10.18;;
13927;SDS011;7036;50.834;4.718;2023-04-21T08:24:55;15.93;;;9.32;;
13927;SDS011;7036;50.834;4.718;2023-04-21T08:27:22;21.47;;;9.80;;
13927;SDS011;7036;50.834;4.718;2023-04-21T08:29:49;24.65;;;10.32;;
13927;SDS011;7036;50.834;4.718;2023-04-21T08:32:16;24.27;;;11.43;;
13927;SDS011;7036;50.834;4.718;2023-04-21T08:34:44;26.83;;;11.25;;
13927;SDS011;7036;50.834;4.718;2023-04-21T08:37:11;29.92;;;11.23;;
13927;SDS011;7036;50.834;4.718;2023-04-21T08:39:38;29.83;;;12.32;;
13927;SDS011;7036;50.834;4.718;2023-04-21T08:42:06;25.30;;;10.70;;
13927;SDS011;7036;50.834;4.718;2023-04-21T08:44:33;31.13;;;12.57;;
13927;SDS011;7036;50.834;4.718;2023-04-21T08:47:00;50.60;;;12.10;;
13927;SDS011;7036;50.834;4.718;2023-04-21T08:49:28;29.55;;;11.75;;
13927;SDS011;7036;50.834;4.718;2023-04-21T08:51:54;23.08;;;9.80;;
13927;SDS011;7036;50.834;4.718;2023-04-21T08:54:22;24.45;;;10.13;;
13927;SDS011;7036;50.834;4.718;2023-04-21T08:56:49;27.67;;;10.25;;
13927;SDS011;7036;50.834;4.718;2023-04-21T08:59:16;29.60;;;10.57;;
13927;SDS011;7036;50.834;4.718;2023-04-21T09:04:45;40.50;;;11.80;;
13927;SDS011;7036;50.834;4.718;2023-04-21T09:07:06;32.60;;;11.03;;
13927;SDS011;7036;50.834;4.718;2023-04-21T09:12:20;28.37;;;10.43;;
13927;SDS011;7036;50.834;4.718;2023-04-21T09:14:47;34.53;;;10.75;;
13927;SDS011;7036;50.834;4.718;2023-04-21T09:17:15;26.38;;;10.68;;
13927;SDS011;7036;50.834;4.718;2023-04-21T09:19:41;21.40;;;10.20;;
13927;SDS011;7036;50.834;4.718;2023-04-21T09:22:12;13.13;;;10.10;;
13927;SDS011;7036;50.834;4.718;2023-04-21T09:24:36;20.17;;;9.45;;
13927;SDS011;7036;50.834;4.718;2023-04-21T09:27:03;24.33;;;9.82;;
13927;SDS011;7036;50.834;4.718;2023-04-21T09:29:32;18.27;;;8.73;;
13927;SDS011;7036;50.834;4.718;2023-04-21T09:31:58;19.90;;;8.37;;
13927;SDS011;7036;50.834;4.718;2023-04-21T09:34:27;25.40;;;9.07;;
13927;SDS011;7036;50.834;4.718;2023-04-21T09:37:01;18.47;;;9.07;;
13927;SDS011;7036;50.834;4.718;2023-04-21T09:39:28;16.30;;;8.57;;
13927;SDS011;7036;50.834;4.718;2023-04-21T09:41:56;26.83;;;9.02;;
13927;SDS011;7036;50.834;4.718;2023-04-21T09:44:27;27.23;;;9.23;;
13927;SDS011;7036;50.834;4.718;2023-04-21T09:46:59;20.00;;;8.57;;
13927;SDS011;7036;50.834;4.718;2023-04-21T09:49:24;19.53;;;8.37;;
13927;SDS011;7036;50.834;4.718;2023-04-21T09:51:58;16.50;;;8.43;;
13927;SDS011;7036;50.834;4.718;2023-04-21T09:54:34;15.90;;;8.93;;
13927;SDS011;7036;50.834;4.718;2023-04-21T09:56:52;16.17;;;8.43;;
13927;SDS011;7036;50.834;4.718;2023-04-21T09:59:20;17.48;;;8.50;;
13927;SDS011;7036;50.834;4.718;2023-04-21T10:01:49;16.98;;;8.02;;
13927;SDS011;7036;50.834;4.718;2023-04-21T10:04:16;17.10;;;7.83;;
13927;SDS011;7036;50.834;4.718;2023-04-21T10:06:44;14.95;;;8.30;;
13927;SDS011;7036;50.834;4.718;2023-04-21T10:09:11;15.38;;;7.40;;
13927;SDS011;7036;50.834;4.718;2023-04-21T10:11:39;18.38;;;8.15;;
13927;SDS011;7036;50.834;4.718;2023-04-21T10:14:07;12.23;;;8.05;;
13927;SDS011;7036;50.834;4.718;2023-04-21T10:16:35;17.70;;;8.57;;
13927;SDS011;7036;50.834;4.718;2023-04-21T10:19:04;20.05;;;8.93;;
13927;SDS011;7036;50.834;4.718;2023-04-21T10:21:30;14.80;;;8.05;;
13927;SDS011;7036;50.834;4.718;2023-04-21T10:23:57;18.25;;;7.47;;
13927;SDS011;7036;50.834;4.718;2023-04-21T10:26:26;14.05;;;8.02;;
13927;SDS011;7036;50.834;4.718;2023-04-21T10:28:56;15.50;;;7.85;;
13927;SDS011;7036;50.834;4.718;2023-04-21T10:31:23;13.20;;;8.07;;
13927;SDS011;7036;50.834;4.718;2023-04-21T10:39:01;18.23;;;7.25;;
13927;SDS011;7036;50.834;4.718;2023-04-21T10:41:32;12.35;;;7.50;;
13927;SDS011;7036;50.834;4.718;2023-04-21T10:44:10;14.10;;;7.23;;
13927;SDS011;7036;50.834;4.718;2023-04-21T10:46:39;9.30;;;7.10;;
13927;SDS011;7036;50.834;4.718;2023-04-21T10:49:11;11.68;;;7.43;;
13927;SDS011;7036;50.834;4.718;2023-04-21T10:54:25;13.73;;;8.20;;
13927;SDS011;7036;50.834;4.718;2023-04-21T10:56:57;11.43;;;7.80;;
13927;SDS011;7036;50.834;4.718;2023-04-21T10:59:23;12.57;;;8.67;;
13927;SDS011;7036;50.834;4.718;2023-04-21T11:01:50;16.30;;;7.80;;
13927;SDS011;7036;50.834;4.718;2023-04-21T11:04:19;14.85;;;8.63;;
13927;SDS011;7036;50.834;4.718;2023-04-21T11:07:19;14.90;;;8.07;;
13927;SDS011;7036;50.834;4.718;2023-04-21T11:09:34;13.73;;;8.40;;
13927;SDS011;7036;50.834;4.718;2023-04-21T11:12:01;12.45;;;7.32;;
13927;SDS011;7036;50.834;4.718;2023-04-21T11:14:29;24.58;;;9.25;;
13927;SDS011;7036;50.834;4.718;2023-04-21T11:16:55;15.57;;;9.83;;
13927;SDS011;7036;50.834;4.718;2023-04-21T11:19:23;16.23;;;9.90;;
13927;SDS011;7036;50.834;4.718;2023-04-21T11:21:54;17.42;;;9.32;;
13927;SDS011;7036;50.834;4.718;2023-04-21T11:24:22;23.07;;;10.73;;
13927;SDS011;7036;50.834;4.718;2023-04-21T11:26:48;24.83;;;11.07;;
13927;SDS011;7036;50.834;4.718;2023-04-21T11:29:16;25.10;;;10.48;;
13927;SDS011;7036;50.834;4.718;2023-04-21T11:31:44;13.77;;;9.85;;
13927;SDS011;7036;50.834;4.718;2023-04-21T11:34:11;14.07;;;9.23;;
13927;SDS011;7036;50.834;4.718;2023-04-21T11:36:39;22.33;;;11.20;;
13927;SDS011;7036;50.834;4.718;2023-04-21T11:39:06;15.02;;;10.10;;
13927;SDS011;7036;50.834;4.718;2023-04-21T11:41:33;11.90;;;8.60;;
13927;SDS011;7036;50.834;4.718;2023-04-21T11:44:00;18.50;;;9.68;;
13927;SDS011;7036;50.834;4.718;2023-04-21T11:46:27;14.73;;;9.88;;
13927;SDS011;7036;50.834;4.718;2023-04-21T11:49:02;15.43;;;10.10;;
13927;SDS011;7036;50.834;4.718;2023-04-21T11:51:34;19.80;;;9.67;;
13927;SDS011;7036;50.834;4.718;2023-04-21T11:54:00;18.43;;;9.43;;
13927;SDS011;7036;50.834;4.718;2023-04-21T11:56:28;15.60;;;9.52;;
13927;SDS011;7036;50.834;4.718;2023-04-21T11:58:55;19.50;;;9.00;;
13927;SDS011;7036;50.834;4.718;2023-04-21T12:01:23;15.55;;;9.55;;
13927;SDS011;7036;50.834;4.718;2023-04-21T12:03:51;16.25;;;7.53;;
13927;SDS011;7036;50.834;4.718;2023-04-21T12:06:21;11.20;;;7.70;;
13927;SDS011;7036;50.834;4.718;2023-04-21T12:08:48;12.67;;;7.67;;
13927;SDS011;7036;50.834;4.718;2023-04-21T12:11:15;20.35;;;8.82;;
13927;SDS011;7036;50.834;4.718;2023-04-21T12:13:43;26.17;;;9.45;;
13927;SDS011;7036;50.834;4.718;2023-04-21T12:16:11;20.17;;;9.02;;
13927;SDS011;7036;50.834;4.718;2023-04-21T12:18:37;23.85;;;9.80;;
13927;SDS011;7036;50.834;4.718;2023-04-21T12:21:04;30.08;;;9.52;;
13927;SDS011;7036;50.834;4.718;2023-04-21T12:23:32;22.00;;;10.38;;
13927;SDS011;7036;50.834;4.718;2023-04-21T12:25:59;22.52;;;8.77;;
13927;SDS011;7036;50.834;4.718;2023-04-21T12:28:28;16.70;;;8.93;;
13927;SDS011;7036;50.834;4.718;2023-04-21T12:30:54;20.65;;;9.85;;
13927;SDS011;7036;50.834;4.718;2023-04-21T12:33:21;32.38;;;10.98;;
13927;SDS011;7036;50.834;4.718;2023-04-21T12:35:49;31.02;;;10.50;;
13927;SDS011;7036;50.834;4.718;2023-04-21T12:38:17;20.88;;;9.40;;
13927;SDS011;7036;50.834;4.718;2023-04-21T12:40:43;23.40;;;9.23;;
13927;SDS011;7036;50.834;4.718;2023-04-21T12:43:11;22.95;;;10.68;;
13927;SDS011;7036;50.834;4.718;2023-04-21T12:45:38;17.80;;;9.90;;
13927;SDS011;7036;50.834;4.718;2023-04-21T12:48:06;16.63;;;10.20;;
13927;SDS011;7036;50.834;4.718;2023-04-21T12:50:33;19.40;;;10.25;;
13927;SDS011;7036;50.834;4.718;2023-04-21T12:53:00;20.15;;;9.82;;
13927;SDS011;7036;50.834;4.718;2023-04-21T12:55:28;17.10;;;8.95;;
13927;SDS011;7036;50.834;4.718;2023-04-21T12:57:56;20.85;;;9.35;;
13927;SDS011;7036;50.834;4.718;2023-04-21T13:00:23;20.98;;;9.15;;
13927;SDS011;7036;50.834;4.718;2023-04-21T13:02:51;13.82;;;8.77;;
13927;SDS011;7036;50.834;4.718;2023-04-21T13:05:18;17.13;;;9.43;;
13927;SDS011;7036;50.834;4.718;2023-04-21T13:07:45;24.92;;;11.10;;
13927;SDS011;7036;50.834;4.718;2023-04-21T13:10:13;19.65;;;10.15;;
13927;SDS011;7036;50.834;4.718;2023-04-21T13:12:40;20.75;;;8.60;;
13927;SDS011;7036;50.834;4.718;2023-04-21T13:15:07;14.43;;;9.63;;
13927;SDS011;7036;50.834;4.718;2023-04-21T13:17:35;17.02;;;8.88;;
13927;SDS011;7036;50.834;4.718;2023-04-21T13:20:03;10.43;;;8.18;;
13927;SDS011;7036;50.834;4.718;2023-04-21T13:22:30;12.63;;;7.70;;
13927;SDS011;7036;50.834;4.718;2023-04-21T13:24:57;12.07;;;8.30;;
13927;SDS011;7036;50.834;4.718;2023-04-21T13:27:25;14.02;;;7.57;;
13927;SDS011;7036;50.834;4.718;2023-04-21T13:29:52;11.35;;;8.10;;
13927;SDS011;7036;50.834;4.718;2023-04-21T13:32:19;19.92;;;8.07;;
13927;SDS011;7036;50.834;4.718;2023-04-21T13:34:46;18.10;;;8.27;;
13927;SDS011;7036;50.834;4.718;2023-04-21T13:37:14;15.23;;;8.20;;
13927;SDS011;7036;50.834;4.718;2023-04-21T13:39:42;12.07;;;7.90;;
13927;SDS011;7036;50.834;4.718;2023-04-21T13:42:10;14.82;;;7.97;;
13927;SDS011;7036;50.834;4.718;2023-04-21T13:44:38;28.58;;;8.43;;
13927;SDS011;7036;50.834;4.718;2023-04-21T13:47:07;16.00;;;8.45;;
13927;SDS011;7036;50.834;4.718;2023-04-21T13:49:34;13.63;;;7.67;;
13927;SDS011;7036;50.834;4.718;2023-04-21T13:52:01;13.63;;;7.60;;
13927;SDS011;7036;50.834;4.718;2023-04-21T13:54:28;11.88;;;7.57;;
13927;SDS011;7036;50.834;4.718;2023-04-21T13:56:55;11.10;;;7.60;;
13927;SDS011;7036;50.834;4.718;2023-04-21T13:59:23;15.07;;;7.88;;
13927;SDS011;7036;50.834;4.718;2023-04-21T14:01:50;14.05;;;7.15;;
13927;SDS011;7036;50.834;4.718;2023-04-21T14:04:17;13.55;;;7.07;;
13927;SDS011;7036;50.834;4.718;2023-04-21T14:06:45;14.50;;;8.20;;
13927;SDS011;7036;50.834;4.718;2023-04-21T14:09:13;14.63;;;7.32;;
13927;SDS011;7036;50.834;4.718;2023-04-21T14:11:40;11.25;;;7.28;;
13927;SDS011;7036;50.834;4.718;2023-04-21T14:14:07;12.80;;;7.10;;
13927;SDS011;7036;50.834;4.718;2023-04-21T14:16:35;13.35;;;6.50;;
13927;SDS011;7036;50.834;4.718;2023-04-21T14:19:04;12.40;;;6.80;;
13927;SDS011;7036;50.834;4.718;2023-04-21T14:21:31;14.93;;;7.63;;
13927;SDS011;7036;50.834;4.718;2023-04-21T14:23:58;9.40;;;6.47;;
13927;SDS011;7036;50.834;4.718;2023-04-21T14:26:26;12.55;;;6.60;;
13927;SDS011;7036;50.834;4.718;2023-04-21T14:28:53;10.32;;;6.72;;
13927;SDS011;7036;50.834;4.718;2023-04-21T14:31:21;19.50;;;6.90;;
13927;SDS011;7036;50.834;4.718;2023-04-21T14:33:48;10.68;;;7.07;;
13927;SDS011;7036;50.834;4.718;2023-04-21T14:36:15;9.70;;;6.07;;
13927;SDS011;7036;50.834;4.718;2023-04-21T14:38:43;14.45;;;6.35;;
13927;SDS011;7036;50.834;4.718;2023-04-21T14:41:10;8.60;;;6.20;;
13927;SDS011;7036;50.834;4.718;2023-04-21T14:43:37;9.13;;;6.20;;
13927;SDS011;7036;50.834;4.718;2023-04-21T14:46:05;10.20;;;6.60;;
13927;SDS011;7036;50.834;4.718;2023-04-21T14:48:32;10.07;;;6.60;;
13927;SDS011;7036;50.834;4.718;2023-04-21T14:51:00;7.15;;;6.30;;
13927;SDS011;7036;50.834;4.718;2023-04-21T14:53:28;7.10;;;6.35;;
13927;SDS011;7036;50.834;4.718;2023-04-21T14:55:55;6.85;;;6.15;;
13927;SDS011;7036;50.834;4.718;2023-04-21T14:58:22;12.13;;;6.90;;
13927;SDS011;7036;50.834;4.718;2023-04-21T15:00:49;9.95;;;7.18;;
13927;SDS011;7036;50.834;4.718;2023-04-21T15:03:17;7.85;;;6.28;;
13927;SDS011;7036;50.834;4.718;2023-04-21T15:05:44;11.25;;;6.88;;
13927;SDS011;7036;50.834;4.718;2023-04-21T15:08:11;11.85;;;6.90;;